Weather

Rainfall Maps have ended for the season and will begin again on June 1st.

*Note: Some stations are located near irrigated fields and may also report irrigation

Forrest Carberry Carberry North Wawanesa Glenboro Glenora Treherne Gladstone Portage East High Bluff Elm Creek Carman Winkler Kuhl Farm Morris St.Adolphe Steinbach Selkirk Macdonald Shilo Rivers Somerset Reinland Altona Starbuck St.Pierre Winkler




Steinbach - Historical Weather Data
Date Max Temp (°C) Min Temp (°C) Avg Temp (°C) Rain (mm) Avg RH (%)
4/25/2018 19.3 2.9 11.2 0.0 42.0
4/24/2018 10.8 -3.2 3.7 0.0 61.0
4/23/2018 16.1 4.1 10.0 0.0 55.0
4/22/2018 16.6 6.5 11.9 0.0 58.0
4/21/2018 17.9 -0.7 9.8 0.0 68.0
4/20/2018 15.3 -1.8 7.6 0.0 63.0
4/19/2018 14.8 -3.3 7.0 0.0 47.0
4/18/2018 15.1 -2.9 5.4 0.0 41.0
4/17/2018 13.9 -6.7 3.0 0.0 41.0
4/16/2018 9.9 -8.0 0.4 0.0 49.0
4/15/2018 5.9 -6.2 -1.0 0.0 43.0
4/14/2018 4.6 -9.1 -2.5 0.0 49.0
4/13/2018 2.8 -11.1 -4.3 0.0 51.0
4/12/2018 3.2 -6.4 -1.4 1.6 68.0
4/11/2018 5.3 -8.5 -0.3 0.0 59.0
4/10/2018 3.7 -3.6 -0.5 0.0 75.0
4/9/2018 2.2 -12.2 -4.3 0.0 61.0
4/8/2018 2.4 -15.2 -6.6 0.0 55.0
4/7/2018 -3.5 -15.5 -9.3 0.0 61.0
4/6/2018 -6.4 -17.8 -11.8 0.0 66.0
4/5/2018 -2.6 -12.5 -6.7 0.7 63.0
4/4/2018 -1.5 -10.6 -6.2 0.0 64.0
4/3/2018 -5.0 -17.7 -11.1 0.0 56.0
4/2/2018 -6.3 -17.5 -12.2 0.0 54.0
4/1/2018 -1.4 -11.2 -7.1 0.0 63.0
3/31/2018 -8.1 -14.7 -11.0 0.0 59.0
3/30/2018 -7.6 -16.3 -11.9 0.0 58.0
3/29/2018 -5.5 -13.4 -8.4 0.0 69.0
3/28/2018 3.7 -7.8 -3.4 3.0 81.0
3/27/2018 7.1 -2.0 2.2 0.0 82.0
3/26/2018 2.7 -0.3 0.8 0.0 93.0
3/25/2018 1.7 -0.3 0.5 0.0 77.0
3/24/2018 1.8 -3.5 -0.2 0.0 61.0
3/23/2018 4.6 -3.9 0.7 0.0 66.0
3/22/2018 9.6 -1.0 1.5 0.0 87.0
3/21/2018 1.7 -6.5 -0.8 0.0 89.0
3/20/2018 0.6 -5.1 -1.9 0.3 88.0
3/19/2018 3.3 -3.9 -1.1 0.0 71.0
3/18/2018 7.5 -1.5 0.7 0.0 81.0
3/17/2018 3.5 -13.5 -3.9 0.0 63.0
3/16/2018 3.1 -15.7 -5.9 0.0 58.0
3/15/2018 5.1 -14.2 -8.1 0.0 69.0
3/14/2018 -1.5 -10.0 -5.7 0.0 84.0
3/13/2018 1.1 -16.0 -6.6 0.0 72.0
3/12/2018 -2.1 -13.1 -7.2 0.0 80.0
3/11/2018 -0.2 -7.6 -4.0 0.0 85.0
3/10/2018 -0.3 -11.9 -4.5 0.3 77.0
3/9/2018 -0.9 -18.6 -11.1 0.0 81.0
3/8/2018 -2.9 -18.1 -11.2 0.0 90.0
3/7/2018 -6.7 -19.4 -12.2 0.0 81.0
3/6/2018 -0.9 -14.2 -7.7 0.0 66.0
3/5/2018 1.9 -3.3 -0.5 1.9 80.0
3/4/2018 3.9 0.0 2.0 4.9 75.0
3/3/2018 5.5 -8.7 -0.4 0.6 64.0
3/2/2018 0.0 -16.2 -7.3 0.0 82.0
3/1/2018 2.4 -14.2 -5.4 0.0 81.0
2/28/2018 0.5 -9.6 -5.2 0.0 73.0
2/27/2018 -1.0 -11.1 -7.0 0.0 74.0
2/26/2018 0.7 -12.1 -5.9 0.0 78.0
2/25/2018 -4.3 -11.3 -7.5 0.9 89.0
2/24/2018 -5.2 -15.2 -9.7 0.7 72.0
2/23/2018 -9.3 -16.8 -13.3 0.0 82.0
2/22/2018 -7.7 -20.7 -13.2 0.0 74.0
2/21/2018 -11.7 -18.7 -15.6 0.0 69.0
2/20/2018 -13.3 -17.6 -15.8 0.9 75.0
2/19/2018 -14.7 -25.2 -19.0 0.0 66.0
2/18/2018 -9.8 -23.0 -16.1 0.0 73.0
2/17/2018 -9.2 -16.9 -13.3 0.0 73.0
2/16/2018 -8.7 -20.5 -13.5 0.0 71.0
2/15/2018 -5.6 -22.9 -19.2 0.0 74.0
2/14/2018 0.9 -8.3 -4.3 0.6 79.0
2/13/2018 -5.2 -21.4 -10.3 0.0 75.0
2/12/2018 -16.9 -28.0 -22.8 0.0 67.0
2/11/2018 -14.8 -25.9 -18.1 0.0 77.0
2/10/2018 -13.5 -21.3 -17.1 0.0 72.0
2/9/2018 -12.9 -25.8 -19.6 0.0 72.0
2/8/2018 -15.4 -24.6 -21.1 0.0 78.0
2/7/2018 -15.1 -23.8 -20.1 0.0 76.0
2/6/2018 -14.5 -24.4 -20.0 0.0 75.0
2/5/2018 -15.1 -23.6 -18.9 0.0 71.0
2/4/2018 -15.8 -28.5 -21.6 0.0 70.0
2/3/2018 -21.4 -27.8 -23.9 0.0 78.0
2/2/2018 -15.8 -28.4 -22.0 1.4 79.0
2/1/2018 -20.2 -25.7 -22.9 0.0 74.0
1/31/2018 -12.3 -21.0 -18.3 0.0 69.0
1/30/2018 -2.1 -23.6 -12.1 0.6 81.0
1/29/2018 -12.8 -26.2 -20.7 0.0 75.0
1/28/2018 -19.3 -23.3 -21.3 0.0 79.0
1/27/2018 -8.1 -19.8 -14.4 0.9 85.0
1/26/2018 -2.2 -8.2 -3.9 0.0 96.0
1/25/2018 -2.6 -10.4 -5.7 0.0 91.0
1/24/2018 -4.7 -10.6 -7.8 0.0 91.0
1/23/2018 -6.2 -8.7 -7.5 0.0 92.0
1/22/2018 -3.1 -7.1 -5.5 0.0 85.0
1/21/2018 -5.7 -8.5 -7.5 0.0 92.0
1/20/2018 1.7 -8.6 -3.3 0.0 92.0
1/19/2018 4.6 -2.9 1.7 0.0 83.0
1/18/2018 1.4 -10.9 -5.4 0.2 83.0
1/17/2018 2.8 -13.5 -6.1 0.0 68.0
1/16/2018 -13.2 -27.8 -19.6 0.0 66.0
1/15/2018 -22.6 -27.7 -25.3 0.0 76.0
1/14/2018 -15.1 -23.1 -18.2 1.2 79.0
1/13/2018 -18.4 -31.5 -24.1 0.0 70.0
1/12/2018 -21.7 -29.0 -25.7 0.0 73.0
1/11/2018 -19.4 -27.5 -23.7 0.7 75.0
1/10/2018 0.0 -19.4 -9.3 0.6 85.0
1/9/2018 0.6 -17.9 -4.9 0.0 75.0
1/8/2018 -4.9 -17.2 -9.9 0.0 81.0
1/7/2018 -1.2 -9.9 -5.9 0.0 89.0
1/6/2018 -9.7 -23.6 -15.1 0.0 70.0
1/5/2018 -19.2 -33.1 -25.6 0.0 71.0
1/4/2018 -13.4 -30.7 -25.4 0.0 71.0
1/3/2018 -21.4 -28.2 -23.8 0.0 77.0
1/2/2018 -13.9 -21.7 -18.0 0.0 73.0
1/1/2018 -18.2 -27.4 -22.9 0.0 68.0
12/31/2017 -25.0 -32.5 -28.7 0.0 72.0
12/30/2017 -27.6 -33.7 -31.0 0.0 72.0
12/29/2017 -23.7 -29.0 -27.1 0.0 77.0
12/28/2017 -15.3 -26.4 -20.6 0.3 78.0
12/27/2017 -21.7 -30.0 -25.9 0.0 69.0
12/26/2017 -25.5 -29.0 -27.6 0.0 72.0
12/25/2017 -26.5 -29.6 -28.1 0.0 71.0
12/24/2017 -20.3 -28.4 -24.4 0.0 77.0
12/23/2017 -8.4 -25.9 -15.0 0.0 81.0
12/22/2017 -10.5 -16.1 -12.2 0.4 83.0
12/21/2017 -14.6 -25.6 -18.4 0.0 80.0
12/20/2017 -12.8 -23.8 -17.6 0.0 80.0
12/19/2017 -3.0 -19.1 -10.3 0.0 72.0
12/18/2017 1.6 -3.2 -0.8 0.0 82.0
12/17/2017 -0.8 -9.6 -6.2 0.0 85.0
12/16/2017 -7.3 -13.3 -10.8 0.6 90.0
12/15/2017 -10.0 -14.7 -12.2 0.2 87.0
12/14/2017 -9.6 -13.1 -10.8 0.7 90.0
12/13/2017 -7.3 -12.5 -9.1 0.0 94.0
12/12/2017 -5.1 -17.7 -9.8 0.5 95.0
12/11/2017 -4.1 -18.7 -10.9 0.3 89.0
12/10/2017 0.0 -8.3 -6.5 2.8 86.0
12/9/2017 -6.7 -12.9 -9.6 0.0 87.0
12/8/2017 -1.6 -9.9 -7.6 0.0 88.0
12/7/2017 -5.0 -15.8 -9.7 0.0 85.0
12/6/2017 -12.2 -17.5 -14.6 0.1 78.0
12/5/2017 -12.6 -16.4 -14.2 0.0 82.0
12/4/2017 0.0 -13.2 -3.9 1.8 94.0
12/3/2017 2.1 -6.9 -1.7 0.0 87.0
12/2/2017 3.6 -11.1 -3.0 0.0 87.0
12/1/2017 3.6 -8.7 -2.6 0.0 90.0
11/30/2017 1.6 -3.7 -0.5 0.8 89.0
11/29/2017 6.1 -8.6 0.0 1.1 69.0
11/28/2017 3.0 -10.9 -4.3 0.0 71.0
11/27/2017 7.7 -5.5 2.1 1.0 79.0
11/26/2017 -0.3 -8.0 -5.5 0.0 86.0
11/25/2017 -1.2 -12.7 -8.1 0.0 78.0
11/24/2017 7.4 -8.6 0.9 0.0 85.0
11/23/2017 6.9 -9.4 -3.4 0.0 88.0
11/22/2017 -5.8 -13.7 -9.4 0.0 86.0
11/21/2017 -7.1 -12.7 -10.1 0.0 80.0
11/20/2017 3.8 -8.8 -2.9 0.0 80.0
11/19/2017 -0.7 -14.4 -9.9 0.0 78.0
11/18/2017 -8.9 -13.8 -10.8 0.0 80.0
11/17/2017 0.3 -11.8 -5.5 1.2 83.0
11/16/2017 -0.9 -7.8 -5.2 0.0 83.0
11/15/2017 -2.4 -7.1 -5.0 0.3 93.0
11/14/2017 3.4 -4.6 0.4 0.0 96.0
11/13/2017 2.8 -11.1 -3.2 0.0 82.0
11/12/2017 -3.9 -9.7 -5.2 0.0 87.0
11/11/2017 -4.6 -8.5 -6.1 0.5 88.0
11/10/2017 -6.5 -20.9 -12.2 0.1 70.0
11/9/2017 -12.1 -22.9 -17.2 0.0 80.0
11/8/2017 -8.4 -15.4 -10.8 0.4 83.0
11/7/2017 -4.9 -15.8 -10.1 0.0 79.0
11/6/2017 -7.3 -14.0 -11.1 0.0 82.0
11/5/2017 -3.9 -11.8 -6.6 0.0 84.0
11/4/2017 0.2 -4.5 -2.1 3.7 95.0
11/3/2017 -1.0 -10.2 -5.1 0.0 84.0
11/2/2017 0.2 -6.1 -2.1 0.0 91.0
11/1/2017 0.6 -5.5 -2.2 0.0 86.0
10/31/2017 -2.5 -8.6 -4.9 0.0 83.0